Mountain Brook, South Carolina
Current Conditions -  °F | °C
As of 10:53 AM on Tuesday 21 Oct 2014 (Local Time) from KCUB Reporting Station
Clear Clear  
Wind Chill: 67°   Ceiling: Unl
Heat Index: 67°   Visibility: 10mi
Dew Point: 53°   Wind: 5mph
Humidity: 61%   Direction: 270°W
Pressure: 29.98"   Gusts: NA
Location:  33.9488°N, 80.9462°W
Report Text: KCUB 211453Z AUTO 27004KT 10SM CLR 19/12 A2998 RMK AO2 SLP150 T01940117 50001
Loading
Personal Weather Stations






























Interactive Weather Map
Tropical Storm Tracking
New forecast layout! Learn more

10-Day Weather Forecast

Advertisements
Track Severe Weather on mobile